sensor_id;sensor_type;location;lat;lon;timestamp;P1;durP1;ratioP1;P2;durP2;ratioP2
22219;SDS011;11279;48.364;10.904;2023-12-14T00:00:55;7.00;;;4.00;;
22219;SDS011;11279;48.364;10.904;2023-12-14T00:01:56;6.37;;;4.17;;
22219;SDS011;11279;48.364;10.904;2023-12-14T00:02:56;6.27;;;4.30;;
22219;SDS011;11279;48.364;10.904;2023-12-14T00:03:57;8.17;;;4.00;;
22219;SDS011;11279;48.364;10.904;2023-12-14T00:04:58;5.63;;;3.70;;
22219;SDS011;11279;48.364;10.904;2023-12-14T00:05:58;5.67;;;3.63;;
22219;SDS011;11279;48.364;10.904;2023-12-14T00:06:58;5.87;;;3.53;;
22219;SDS011;11279;48.364;10.904;2023-12-14T00:07:59;4.90;;;3.40;;
22219;SDS011;11279;48.364;10.904;2023-12-14T00:08:59;4.73;;;3.27;;
22219;SDS011;11279;48.364;10.904;2023-12-14T00:10:00;4.30;;;3.43;;
22219;SDS011;11279;48.364;10.904;2023-12-14T00:11:06;5.00;;;3.60;;
22219;SDS011;11279;48.364;10.904;2023-12-14T00:12:07;3.97;;;3.10;;
22219;SDS011;11279;48.364;10.904;2023-12-14T00:13:08;5.50;;;3.50;;
22219;SDS011;11279;48.364;10.904;2023-12-14T00:14:08;5.53;;;3.33;;
22219;SDS011;11279;48.364;10.904;2023-12-14T00:15:09;4.83;;;3.13;;
22219;SDS011;11279;48.364;10.904;2023-12-14T00:16:09;4.37;;;3.00;;
22219;SDS011;11279;48.364;10.904;2023-12-14T00:17:10;5.57;;;3.37;;
22219;SDS011;11279;48.364;10.904;2023-12-14T00:18:10;5.63;;;3.30;;
22219;SDS011;11279;48.364;10.904;2023-12-14T00:19:11;6.07;;;2.77;;
22219;SDS011;11279;48.364;10.904;2023-12-14T00:20:11;4.87;;;2.97;;
22219;SDS011;11279;48.364;10.904;2023-12-14T00:21:12;4.67;;;3.10;;
22219;SDS011;11279;48.364;10.904;2023-12-14T00:22:12;4.30;;;2.70;;
22219;SDS011;11279;48.364;10.904;2023-12-14T00:23:13;5.27;;;2.77;;
22219;SDS011;11279;48.364;10.904;2023-12-14T00:24:14;3.77;;;2.70;;
22219;SDS011;11279;48.364;10.904;2023-12-14T00:25:14;5.53;;;2.80;;
22219;SDS011;11279;48.364;10.904;2023-12-14T00:26:14;5.03;;;2.93;;
22219;SDS011;11279;48.364;10.904;2023-12-14T00:27:15;4.93;;;2.90;;
22219;SDS011;11279;48.364;10.904;2023-12-14T00:28:15;4.03;;;2.57;;
22219;SDS011;11279;48.364;10.904;2023-12-14T00:29:16;5.23;;;2.77;;
22219;SDS011;11279;48.364;10.904;2023-12-14T00:30:16;2.97;;;2.30;;
22219;SDS011;11279;48.364;10.904;2023-12-14T00:31:17;2.70;;;1.97;;
22219;SDS011;11279;48.364;10.904;2023-12-14T00:32:18;4.03;;;2.40;;
22219;SDS011;11279;48.364;10.904;2023-12-14T00:33:18;2.90;;;2.07;;
22219;SDS011;11279;48.364;10.904;2023-12-14T00:34:19;4.00;;;2.40;;
22219;SDS011;11279;48.364;10.904;2023-12-14T00:35:19;3.60;;;2.40;;
22219;SDS011;11279;48.364;10.904;2023-12-14T00:36:19;3.37;;;2.00;;
22219;SDS011;11279;48.364;10.904;2023-12-14T00:37:20;2.50;;;2.07;;
22219;SDS011;11279;48.364;10.904;2023-12-14T00:38:20;3.47;;;2.13;;
22219;SDS011;11279;48.364;10.904;2023-12-14T00:39:21;4.07;;;1.90;;
22219;SDS011;11279;48.364;10.904;2023-12-14T00:40:21;4.00;;;2.40;;
22219;SDS011;11279;48.364;10.904;2023-12-14T00:41:22;3.23;;;2.27;;
22219;SDS011;11279;48.364;10.904;2023-12-14T00:42:22;2.40;;;1.80;;
22219;SDS011;11279;48.364;10.904;2023-12-14T00:43:23;3.10;;;2.13;;
22219;SDS011;11279;48.364;10.904;2023-12-14T00:44:23;2.87;;;2.10;;
22219;SDS011;11279;48.364;10.904;2023-12-14T00:45:23;2.70;;;2.03;;
22219;SDS011;11279;48.364;10.904;2023-12-14T00:46:24;3.73;;;2.10;;
22219;SDS011;11279;48.364;10.904;2023-12-14T00:47:24;2.13;;;1.73;;
22219;SDS011;11279;48.364;10.904;2023-12-14T00:48:25;2.27;;;1.90;;
22219;SDS011;11279;48.364;10.904;2023-12-14T00:49:25;2.53;;;2.10;;
22219;SDS011;11279;48.364;10.904;2023-12-14T00:50:28;4.32;;;2.20;;
22219;SDS011;11279;48.364;10.904;2023-12-14T00:51:28;2.80;;;1.90;;
22219;SDS011;11279;48.364;10.904;2023-12-14T00:52:29;2.70;;;1.97;;
22219;SDS011;11279;48.364;10.904;2023-12-14T00:53:29;3.80;;;2.27;;
22219;SDS011;11279;48.364;10.904;2023-12-14T00:54:29;4.47;;;2.33;;
22219;SDS011;11279;48.364;10.904;2023-12-14T00:55:30;2.40;;;2.07;;
22219;SDS011;11279;48.364;10.904;2023-12-14T00:56:30;2.93;;;2.10;;
22219;SDS011;11279;48.364;10.904;2023-12-14T00:57:31;2.97;;;2.13;;
22219;SDS011;11279;48.364;10.904;2023-12-14T00:58:31;4.80;;;2.20;;
22219;SDS011;11279;48.364;10.904;2023-12-14T00:59:32;3.60;;;2.10;;
22219;SDS011;11279;48.364;10.904;2023-12-14T01:00:32;4.30;;;2.63;;
22219;SDS011;11279;48.364;10.904;2023-12-14T01:01:32;4.67;;;2.90;;
22219;SDS011;11279;48.364;10.904;2023-12-14T01:02:33;4.63;;;2.67;;
22219;SDS011;11279;48.364;10.904;2023-12-14T01:03:33;4.00;;;2.60;;
22219;SDS011;11279;48.364;10.904;2023-12-14T01:04:34;5.50;;;2.80;;
22219;SDS011;11279;48.364;10.904;2023-12-14T01:05:34;5.07;;;2.73;;
22219;SDS011;11279;48.364;10.904;2023-12-14T01:06:34;4.83;;;2.97;;
22219;SDS011;11279;48.364;10.904;2023-12-14T01:07:35;4.57;;;2.83;;
22219;SDS011;11279;48.364;10.904;2023-12-14T01:08:36;4.67;;;3.10;;
22219;SDS011;11279;48.364;10.904;2023-12-14T01:09:36;5.03;;;2.93;;
22219;SDS011;11279;48.364;10.904;2023-12-14T01:10:36;6.07;;;3.33;;
22219;SDS011;11279;48.364;10.904;2023-12-14T01:11:37;6.83;;;3.50;;
22219;SDS011;11279;48.364;10.904;2023-12-14T01:12:37;6.00;;;3.43;;
22219;SDS011;11279;48.364;10.904;2023-12-14T01:13:38;4.87;;;3.50;;
22219;SDS011;11279;48.364;10.904;2023-12-14T01:14:38;6.63;;;3.90;;
22219;SDS011;11279;48.364;10.904;2023-12-14T01:15:39;6.53;;;4.10;;
22219;SDS011;11279;48.364;10.904;2023-12-14T01:16:39;5.67;;;3.40;;
22219;SDS011;11279;48.364;10.904;2023-12-14T01:17:40;5.97;;;3.97;;
22219;SDS011;11279;48.364;10.904;2023-12-14T01:18:40;5.47;;;3.87;;
22219;SDS011;11279;48.364;10.904;2023-12-14T01:19:40;6.23;;;3.77;;
22219;SDS011;11279;48.364;10.904;2023-12-14T01:20:41;6.07;;;3.97;;
22219;SDS011;11279;48.364;10.904;2023-12-14T01:21:42;5.93;;;3.80;;
22219;SDS011;11279;48.364;10.904;2023-12-14T01:22:42;9.47;;;3.97;;
22219;SDS011;11279;48.364;10.904;2023-12-14T01:23:43;6.50;;;3.97;;
22219;SDS011;11279;48.364;10.904;2023-12-14T01:24:43;6.67;;;4.23;;
22219;SDS011;11279;48.364;10.904;2023-12-14T01:25:44;8.73;;;4.30;;
22219;SDS011;11279;48.364;10.904;2023-12-14T01:26:44;7.87;;;4.43;;
22219;SDS011;11279;48.364;10.904;2023-12-14T01:27:45;6.60;;;3.93;;
22219;SDS011;11279;48.364;10.904;2023-12-14T01:28:45;7.67;;;4.57;;
22219;SDS011;11279;48.364;10.904;2023-12-14T01:29:45;7.40;;;4.37;;
22219;SDS011;11279;48.364;10.904;2023-12-14T01:30:46;6.80;;;4.40;;
22219;SDS011;11279;48.364;10.904;2023-12-14T01:31:46;6.93;;;4.40;;
22219;SDS011;11279;48.364;10.904;2023-12-14T01:32:47;8.53;;;4.70;;
22219;SDS011;11279;48.364;10.904;2023-12-14T01:33:47;7.57;;;4.93;;
22219;SDS011;11279;48.364;10.904;2023-12-14T01:34:47;8.53;;;4.87;;
22219;SDS011;11279;48.364;10.904;2023-12-14T01:35:48;8.03;;;4.80;;
22219;SDS011;11279;48.364;10.904;2023-12-14T01:36:48;9.07;;;4.37;;
22219;SDS011;11279;48.364;10.904;2023-12-14T01:37:49;7.23;;;4.53;;
22219;SDS011;11279;48.364;10.904;2023-12-14T01:38:49;8.63;;;4.43;;
22219;SDS011;11279;48.364;10.904;2023-12-14T01:39:50;7.20;;;4.87;;
22219;SDS011;11279;48.364;10.904;2023-12-14T01:40:50;7.37;;;4.40;;
22219;SDS011;11279;48.364;10.904;2023-12-14T01:41:51;7.37;;;4.23;;
22219;SDS011;11279;48.364;10.904;2023-12-14T01:42:51;7.37;;;4.80;;
22219;SDS011;11279;48.364;10.904;2023-12-14T01:43:52;6.87;;;4.60;;
22219;SDS011;11279;48.364;10.904;2023-12-14T01:44:52;7.50;;;4.60;;
22219;SDS011;11279;48.364;10.904;2023-12-14T01:45:52;8.03;;;4.90;;
22219;SDS011;11279;48.364;10.904;2023-12-14T01:46:53;6.30;;;4.30;;
22219;SDS011;11279;48.364;10.904;2023-12-14T01:47:53;8.20;;;4.77;;
22219;SDS011;11279;48.364;10.904;2023-12-14T01:48:54;7.70;;;5.07;;
22219;SDS011;11279;48.364;10.904;2023-12-14T01:49:54;8.50;;;4.93;;
22219;SDS011;11279;48.364;10.904;2023-12-14T01:50:54;9.43;;;5.13;;
22219;SDS011;11279;48.364;10.904;2023-12-14T01:51:55;7.63;;;4.72;;
22219;SDS011;11279;48.364;10.904;2023-12-14T01:52:56;7.20;;;4.20;;
22219;SDS011;11279;48.364;10.904;2023-12-14T01:53:56;8.23;;;4.13;;
22219;SDS011;11279;48.364;10.904;2023-12-14T01:54:57;8.03;;;5.10;;
22219;SDS011;11279;48.364;10.904;2023-12-14T01:55:59;9.93;;;4.45;;
22219;SDS011;11279;48.364;10.904;2023-12-14T01:56:59;6.57;;;4.43;;
22219;SDS011;11279;48.364;10.904;2023-12-14T01:58:00;7.87;;;4.47;;
22219;SDS011;11279;48.364;10.904;2023-12-14T01:59:00;8.00;;;4.70;;
22219;SDS011;11279;48.364;10.904;2023-12-14T02:00:00;8.20;;;4.53;;
22219;SDS011;11279;48.364;10.904;2023-12-14T02:01:06;8.67;;;5.00;;
22219;SDS011;11279;48.364;10.904;2023-12-14T02:02:09;9.13;;;4.65;;
22219;SDS011;11279;48.364;10.904;2023-12-14T02:03:10;6.53;;;4.17;;
22219;SDS011;11279;48.364;10.904;2023-12-14T02:04:13;8.53;;;4.70;;
22219;SDS011;11279;48.364;10.904;2023-12-14T02:05:15;6.93;;;4.55;;
22219;SDS011;11279;48.364;10.904;2023-12-14T02:06:16;8.25;;;4.82;;
22219;SDS011;11279;48.364;10.904;2023-12-14T02:07:16;5.97;;;4.23;;
22219;SDS011;11279;48.364;10.904;2023-12-14T02:08:17;7.07;;;4.53;;
22219;SDS011;11279;48.364;10.904;2023-12-14T02:09:17;6.67;;;4.37;;
22219;SDS011;11279;48.364;10.904;2023-12-14T02:10:17;7.27;;;4.47;;
22219;SDS011;11279;48.364;10.904;2023-12-14T02:11:18;8.10;;;4.30;;
22219;SDS011;11279;48.364;10.904;2023-12-14T02:12:18;4.50;;;3.50;;
22219;SDS011;11279;48.364;10.904;2023-12-14T02:13:19;5.57;;;4.13;;
22219;SDS011;11279;48.364;10.904;2023-12-14T02:14:21;6.73;;;3.70;;
22219;SDS011;11279;48.364;10.904;2023-12-14T02:15:21;5.88;;;3.83;;
22219;SDS011;11279;48.364;10.904;2023-12-14T02:16:22;6.07;;;3.93;;
22219;SDS011;11279;48.364;10.904;2023-12-14T02:17:22;7.63;;;4.10;;
22219;SDS011;11279;48.364;10.904;2023-12-14T02:18:23;4.60;;;3.67;;
22219;SDS011;11279;48.364;10.904;2023-12-14T02:19:23;5.07;;;3.80;;
22219;SDS011;11279;48.364;10.904;2023-12-14T02:20:23;6.33;;;4.10;;
22219;SDS011;11279;48.364;10.904;2023-12-14T02:21:24;5.07;;;3.77;;
22219;SDS011;11279;48.364;10.904;2023-12-14T02:22:24;5.27;;;3.97;;
22219;SDS011;11279;48.364;10.904;2023-12-14T02:23:25;5.43;;;3.60;;
22219;SDS011;11279;48.364;10.904;2023-12-14T02:24:25;5.43;;;3.77;;
22219;SDS011;11279;48.364;10.904;2023-12-14T02:25:25;4.77;;;3.40;;
22219;SDS011;11279;48.364;10.904;2023-12-14T02:26:26;4.70;;;3.60;;
22219;SDS011;11279;48.364;10.904;2023-12-14T02:27:26;5.13;;;3.60;;
22219;SDS011;11279;48.364;10.904;2023-12-14T02:28:27;5.03;;;3.43;;
22219;SDS011;11279;48.364;10.904;2023-12-14T02:29:27;4.33;;;3.40;;
22219;SDS011;11279;48.364;10.904;2023-12-14T02:30:28;5.03;;;3.40;;
22219;SDS011;11279;48.364;10.904;2023-12-14T02:31:28;5.67;;;3.77;;
22219;SDS011;11279;48.364;10.904;2023-12-14T02:32:29;5.67;;;3.47;;
22219;SDS011;11279;48.364;10.904;2023-12-14T02:33:29;5.70;;;3.20;;
22219;SDS011;11279;48.364;10.904;2023-12-14T02:34:29;5.40;;;3.10;;
22219;SDS011;11279;48.364;10.904;2023-12-14T02:35:30;4.17;;;2.80;;
22219;SDS011;11279;48.364;10.904;2023-12-14T02:36:30;4.90;;;3.20;;
22219;SDS011;11279;48.364;10.904;2023-12-14T02:37:31;4.13;;;2.97;;
22219;SDS011;11279;48.364;10.904;2023-12-14T02:38:32;5.35;;;2.67;;
22219;SDS011;11279;48.364;10.904;2023-12-14T02:39:33;3.80;;;2.40;;
22219;SDS011;11279;48.364;10.904;2023-12-14T02:40:33;3.33;;;2.60;;
22219;SDS011;11279;48.364;10.904;2023-12-14T02:41:34;4.07;;;2.83;;
22219;SDS011;11279;48.364;10.904;2023-12-14T02:42:34;3.50;;;2.53;;
22219;SDS011;11279;48.364;10.904;2023-12-14T02:43:35;4.83;;;2.77;;
22219;SDS011;11279;48.364;10.904;2023-12-14T02:44:35;3.47;;;2.80;;
22219;SDS011;11279;48.364;10.904;2023-12-14T02:45:35;3.80;;;2.73;;
22219;SDS011;11279;48.364;10.904;2023-12-14T02:46:36;3.93;;;2.57;;
22219;SDS011;11279;48.364;10.904;2023-12-14T02:47:36;3.73;;;2.60;;
22219;SDS011;11279;48.364;10.904;2023-12-14T02:48:37;4.27;;;2.83;;
22219;SDS011;11279;48.364;10.904;2023-12-14T02:49:37;3.43;;;2.33;;
22219;SDS011;11279;48.364;10.904;2023-12-14T02:50:38;3.40;;;2.57;;
22219;SDS011;11279;48.364;10.904;2023-12-14T02:51:38;3.53;;;2.53;;
22219;SDS011;11279;48.364;10.904;2023-12-14T02:52:39;3.00;;;2.40;;
22219;SDS011;11279;48.364;10.904;2023-12-14T02:53:39;3.13;;;2.37;;
22219;SDS011;11279;48.364;10.904;2023-12-14T02:54:40;2.70;;;2.20;;
22219;SDS011;11279;48.364;10.904;2023-12-14T02:55:40;3.97;;;2.70;;
22219;SDS011;11279;48.364;10.904;2023-12-14T02:56:40;4.17;;;2.50;;
22219;SDS011;11279;48.364;10.904;2023-12-14T02:57:41;4.70;;;3.27;;
22219;SDS011;11279;48.364;10.904;2023-12-14T02:58:41;4.70;;;3.23;;
22219;SDS011;11279;48.364;10.904;2023-12-14T02:59:42;4.20;;;2.87;;
22219;SDS011;11279;48.364;10.904;2023-12-14T03:00:42;4.43;;;3.23;;
22219;SDS011;11279;48.364;10.904;2023-12-14T03:01:43;4.63;;;3.30;;
22219;SDS011;11279;48.364;10.904;2023-12-14T03:02:43;4.10;;;3.27;;
22219;SDS011;11279;48.364;10.904;2023-12-14T03:03:44;6.07;;;3.60;;
22219;SDS011;11279;48.364;10.904;2023-12-14T03:04:44;5.07;;;3.53;;
22219;SDS011;11279;48.364;10.904;2023-12-14T03:05:44;5.20;;;3.40;;
22219;SDS011;11279;48.364;10.904;2023-12-14T03:06:45;5.53;;;4.13;;
22219;SDS011;11279;48.364;10.904;2023-12-14T03:07:45;6.37;;;4.00;;
22219;SDS011;11279;48.364;10.904;2023-12-14T03:08:46;7.37;;;3.80;;
22219;SDS011;11279;48.364;10.904;2023-12-14T03:09:46;5.90;;;4.10;;
22219;SDS011;11279;48.364;10.904;2023-12-14T03:10:47;8.23;;;4.50;;
22219;SDS011;11279;48.364;10.904;2023-12-14T03:11:47;5.57;;;4.00;;
22219;SDS011;11279;48.364;10.904;2023-12-14T03:12:48;6.63;;;4.20;;
22219;SDS011;11279;48.364;10.904;2023-12-14T03:13:49;6.93;;;4.17;;
22219;SDS011;11279;48.364;10.904;2023-12-14T03:14:49;7.17;;;4.33;;
22219;SDS011;11279;48.364;10.904;2023-12-14T03:15:50;7.13;;;4.37;;
22219;SDS011;11279;48.364;10.904;2023-12-14T03:16:50;8.77;;;4.37;;
22219;SDS011;11279;48.364;10.904;2023-12-14T03:17:50;7.27;;;4.03;;
22219;SDS011;11279;48.364;10.904;2023-12-14T03:18:51;5.43;;;3.87;;
22219;SDS011;11279;48.364;10.904;2023-12-14T03:19:53;7.38;;;4.40;;
22219;SDS011;11279;48.364;10.904;2023-12-14T03:20:53;6.80;;;4.80;;
22219;SDS011;11279;48.364;10.904;2023-12-14T03:21:54;5.90;;;4.07;;
22219;SDS011;11279;48.364;10.904;2023-12-14T03:22:54;8.67;;;4.80;;
22219;SDS011;11279;48.364;10.904;2023-12-14T03:23:55;6.20;;;4.07;;
22219;SDS011;11279;48.364;10.904;2023-12-14T03:24:55;4.90;;;3.90;;
22219;SDS011;11279;48.364;10.904;2023-12-14T03:25:56;5.10;;;3.60;;
22219;SDS011;11279;48.364;10.904;2023-12-14T03:26:56;5.70;;;4.03;;
22219;SDS011;11279;48.364;10.904;2023-12-14T03:27:57;5.70;;;4.20;;
22219;SDS011;11279;48.364;10.904;2023-12-14T03:28:57;5.37;;;3.97;;
22219;SDS011;11279;48.364;10.904;2023-12-14T03:29:57;4.73;;;3.70;;
22219;SDS011;11279;48.364;10.904;2023-12-14T03:30:58;5.03;;;3.77;;
22219;SDS011;11279;48.364;10.904;2023-12-14T03:31:58;5.07;;;3.53;;
22219;SDS011;11279;48.364;10.904;2023-12-14T03:32:59;8.40;;;4.03;;
22219;SDS011;11279;48.364;10.904;2023-12-14T03:33:59;6.50;;;4.30;;
22219;SDS011;11279;48.364;10.904;2023-12-14T03:35:00;5.33;;;3.83;;
22219;SDS011;11279;48.364;10.904;2023-12-14T03:36:00;5.80;;;4.10;;
22219;SDS011;11279;48.364;10.904;2023-12-14T03:37:00;6.07;;;4.37;;
22219;SDS011;11279;48.364;10.904;2023-12-14T03:38:01;5.93;;;3.70;;
22219;SDS011;11279;48.364;10.904;2023-12-14T03:39:01;6.87;;;4.33;;
22219;SDS011;11279;48.364;10.904;2023-12-14T03:40:02;5.37;;;3.63;;
22219;SDS011;11279;48.364;10.904;2023-12-14T03:41:03;5.05;;;3.88;;
22219;SDS011;11279;48.364;10.904;2023-12-14T03:42:04;5.93;;;3.73;;
22219;SDS011;11279;48.364;10.904;2023-12-14T03:43:04;7.80;;;4.23;;
22219;SDS011;11279;48.364;10.904;2023-12-14T03:44:04;5.27;;;4.07;;
22219;SDS011;11279;48.364;10.904;2023-12-14T03:45:05;6.33;;;4.20;;
22219;SDS011;11279;48.364;10.904;2023-12-14T03:46:06;5.95;;;4.28;;
22219;SDS011;11279;48.364;10.904;2023-12-14T03:47:06;6.60;;;4.30;;
22219;SDS011;11279;48.364;10.904;2023-12-14T03:48:07;6.40;;;4.30;;
22219;SDS011;11279;48.364;10.904;2023-12-14T03:49:07;6.00;;;4.33;;
22219;SDS011;11279;48.364;10.904;2023-12-14T03:50:10;6.45;;;4.15;;
22219;SDS011;11279;48.364;10.904;2023-12-14T03:51:12;8.15;;;4.15;;
22219;SDS011;11279;48.364;10.904;2023-12-14T03:52:12;9.27;;;4.60;;
22219;SDS011;11279;48.364;10.904;2023-12-14T03:53:13;7.43;;;4.77;;
22219;SDS011;11279;48.364;10.904;2023-12-14T03:54:13;9.30;;;4.53;;
22219;SDS011;11279;48.364;10.904;2023-12-14T03:55:13;7.87;;;4.50;;
22219;SDS011;11279;48.364;10.904;2023-12-14T03:56:17;7.15;;;4.82;;
22219;SDS011;11279;48.364;10.904;2023-12-14T03:57:17;9.53;;;5.00;;
22219;SDS011;11279;48.364;10.904;2023-12-14T03:58:18;9.27;;;5.37;;
22219;SDS011;11279;48.364;10.904;2023-12-14T03:59:18;8.00;;;4.70;;
22219;SDS011;11279;48.364;10.904;2023-12-14T04:00:18;6.53;;;4.60;;
22219;SDS011;11279;48.364;10.904;2023-12-14T04:01:19;6.80;;;4.50;;
22219;SDS011;11279;48.364;10.904;2023-12-14T04:02:21;7.47;;;4.32;;
22219;SDS011;11279;48.364;10.904;2023-12-14T04:03:21;7.33;;;4.77;;
22219;SDS011;11279;48.364;10.904;2023-12-14T04:04:21;6.10;;;4.37;;
22219;SDS011;11279;48.364;10.904;2023-12-14T04:05:22;7.37;;;4.90;;
22219;SDS011;11279;48.364;10.904;2023-12-14T04:06:23;5.60;;;4.03;;
22219;SDS011;11279;48.364;10.904;2023-12-14T04:07:23;7.80;;;4.97;;
22219;SDS011;11279;48.364;10.904;2023-12-14T04:08:23;7.63;;;4.23;;
22219;SDS011;11279;48.364;10.904;2023-12-14T04:09:24;6.27;;;4.00;;
22219;SDS011;11279;48.364;10.904;2023-12-14T04:10:24;6.20;;;4.13;;
22219;SDS011;11279;48.364;10.904;2023-12-14T04:11:25;5.37;;;3.97;;
22219;SDS011;11279;48.364;10.904;2023-12-14T04:12:25;9.50;;;4.60;;
22219;SDS011;11279;48.364;10.904;2023-12-14T04:13:26;6.30;;;4.37;;
22219;SDS011;11279;48.364;10.904;2023-12-14T04:14:26;7.73;;;4.47;;
22219;SDS011;11279;48.364;10.904;2023-12-14T04:15:26;6.27;;;4.43;;
22219;SDS011;11279;48.364;10.904;2023-12-14T04:16:27;7.57;;;4.05;;
22219;SDS011;11279;48.364;10.904;2023-12-14T04:17:28;5.83;;;4.30;;
22219;SDS011;11279;48.364;10.904;2023-12-14T04:18:28;7.50;;;5.07;;
22219;SDS011;11279;48.364;10.904;2023-12-14T04:19:29;6.80;;;4.63;;
22219;SDS011;11279;48.364;10.904;2023-12-14T04:20:29;6.43;;;4.13;;
22219;SDS011;11279;48.364;10.904;2023-12-14T04:21:30;6.97;;;4.63;;
22219;SDS011;11279;48.364;10.904;2023-12-14T04:22:30;7.60;;;4.90;;
22219;SDS011;11279;48.364;10.904;2023-12-14T04:23:31;7.20;;;4.37;;
22219;SDS011;11279;48.364;10.904;2023-12-14T04:24:31;6.97;;;4.43;;
22219;SDS011;11279;48.364;10.904;2023-12-14T04:25:32;7.07;;;4.50;;
22219;SDS011;11279;48.364;10.904;2023-12-14T04:26:32;5.47;;;4.13;;
22219;SDS011;11279;48.364;10.904;2023-12-14T04:27:33;7.97;;;4.37;;
22219;SDS011;11279;48.364;10.904;2023-12-14T04:28:33;6.40;;;4.17;;
22219;SDS011;11279;48.364;10.904;2023-12-14T04:29:33;5.70;;;3.77;;
22219;SDS011;11279;48.364;10.904;2023-12-14T04:30:34;8.17;;;4.77;;
22219;SDS011;11279;48.364;10.904;2023-12-14T04:31:35;6.53;;;4.03;;
22219;SDS011;11279;48.364;10.904;2023-12-14T04:32:36;8.53;;;4.23;;
22219;SDS011;11279;48.364;10.904;2023-12-14T04:33:37;6.32;;;3.83;;
22219;SDS011;11279;48.364;10.904;2023-12-14T04:34:37;8.83;;;4.03;;
22219;SDS011;11279;48.364;10.904;2023-12-14T04:35:38;5.57;;;3.97;;
22219;SDS011;11279;48.364;10.904;2023-12-14T04:36:38;5.63;;;3.60;;
22219;SDS011;11279;48.364;10.904;2023-12-14T04:37:38;4.70;;;3.40;;
22219;SDS011;11279;48.364;10.904;2023-12-14T04:38:39;6.10;;;3.73;;
22219;SDS011;11279;48.364;10.904;2023-12-14T04:39:39;6.87;;;3.90;;
22219;SDS011;11279;48.364;10.904;2023-12-14T04:40:40;6.60;;;4.00;;
22219;SDS011;11279;48.364;10.904;2023-12-14T04:41:40;5.57;;;3.70;;
22219;SDS011;11279;48.364;10.904;2023-12-14T04:42:41;4.87;;;3.57;;
22219;SDS011;11279;48.364;10.904;2023-12-14T04:43:41;6.43;;;3.47;;
22219;SDS011;11279;48.364;10.904;2023-12-14T04:44:41;5.80;;;3.70;;
22219;SDS011;11279;48.364;10.904;2023-12-14T04:45:42;4.90;;;3.37;;
22219;SDS011;11279;48.364;10.904;2023-12-14T04:46:42;5.70;;;3.43;;
22219;SDS011;11279;48.364;10.904;2023-12-14T04:47:43;4.97;;;3.43;;
22219;SDS011;11279;48.364;10.904;2023-12-14T04:48:43;6.30;;;4.00;;
22219;SDS011;11279;48.364;10.904;2023-12-14T04:49:44;5.77;;;3.57;;
22219;SDS011;11279;48.364;10.904;2023-12-14T04:50:44;4.80;;;3.50;;
22219;SDS011;11279;48.364;10.904;2023-12-14T04:51:44;5.97;;;4.03;;
22219;SDS011;11279;48.364;10.904;2023-12-14T04:52:45;4.93;;;3.40;;
22219;SDS011;11279;48.364;10.904;2023-12-14T04:53:45;5.80;;;3.67;;
22219;SDS011;11279;48.364;10.904;2023-12-14T04:54:46;8.30;;;3.83;;
22219;SDS011;11279;48.364;10.904;2023-12-14T04:55:46;5.30;;;3.50;;
22219;SDS011;11279;48.364;10.904;2023-12-14T04:56:47;4.90;;;3.53;;
22219;SDS011;11279;48.364;10.904;2023-12-14T04:57:47;5.57;;;3.60;;
22219;SDS011;11279;48.364;10.904;2023-12-14T04:58:49;5.38;;;3.72;;
22219;SDS011;11279;48.364;10.904;2023-12-14T04:59:49;5.47;;;3.63;;
22219;SDS011;11279;48.364;10.904;2023-12-14T05:00:50;6.83;;;3.33;;
22219;SDS011;11279;48.364;10.904;2023-12-14T05:01:50;5.17;;;3.63;;
22219;SDS011;11279;48.364;10.904;2023-12-14T05:02:50;5.80;;;3.57;;
22219;SDS011;11279;48.364;10.904;2023-12-14T05:03:51;6.67;;;3.67;;
22219;SDS011;11279;48.364;10.904;2023-12-14T05:04:51;4.87;;;3.17;;
22219;SDS011;11279;48.364;10.904;2023-12-14T05:05:52;6.93;;;3.67;;
22219;SDS011;11279;48.364;10.904;2023-12-14T05:06:52;5.20;;;3.30;;
22219;SDS011;11279;48.364;10.904;2023-12-14T05:07:52;4.40;;;3.27;;
22219;SDS011;11279;48.364;10.904;2023-12-14T05:08:53;6.10;;;3.40;;
22219;SDS011;11279;48.364;10.904;2023-12-14T05:09:53;5.60;;;3.37;;
22219;SDS011;11279;48.364;10.904;2023-12-14T05:10:54;5.20;;;3.40;;
22219;SDS011;11279;48.364;10.904;2023-12-14T05:11:54;6.33;;;3.50;;
22219;SDS011;11279;48.364;10.904;2023-12-14T05:12:55;6.60;;;3.17;;
22219;SDS011;11279;48.364;10.904;2023-12-14T05:13:55;5.13;;;3.43;;
22219;SDS011;11279;48.364;10.904;2023-12-14T05:14:55;7.33;;;3.23;;
22219;SDS011;11279;48.364;10.904;2023-12-14T05:15:56;4.80;;;3.10;;
22219;SDS011;11279;48.364;10.904;2023-12-14T05:17:00;5.85;;;3.42;;
22219;SDS011;11279;48.364;10.904;2023-12-14T05:18:01;5.37;;;3.33;;
22219;SDS011;11279;48.364;10.904;2023-12-14T05:19:01;6.30;;;3.43;;
22219;SDS011;11279;48.364;10.904;2023-12-14T05:20:03;5.27;;;3.63;;
22219;SDS011;11279;48.364;10.904;2023-12-14T05:21:04;9.07;;;4.10;;
22219;SDS011;11279;48.364;10.904;2023-12-14T05:22:05;8.10;;;3.97;;
22219;SDS011;11279;48.364;10.904;2023-12-14T05:23:05;5.97;;;3.30;;
22219;SDS011;11279;48.364;10.904;2023-12-14T05:24:06;5.23;;;3.30;;
22219;SDS011;11279;48.364;10.904;2023-12-14T05:25:06;5.67;;;3.53;;
22219;SDS011;11279;48.364;10.904;2023-12-14T05:26:07;6.00;;;3.17;;
22219;SDS011;11279;48.364;10.904;2023-12-14T05:27:08;5.13;;;3.23;;
22219;SDS011;11279;48.364;10.904;2023-12-14T05:28:08;5.87;;;3.07;;
22219;SDS011;11279;48.364;10.904;2023-12-14T05:29:08;5.97;;;3.50;;
22219;SDS011;11279;48.364;10.904;2023-12-14T05:30:09;6.03;;;3.60;;
22219;SDS011;11279;48.364;10.904;2023-12-14T05:31:10;5.73;;;3.40;;
22219;SDS011;11279;48.364;10.904;2023-12-14T05:32:10;5.63;;;3.40;;
22219;SDS011;11279;48.364;10.904;2023-12-14T05:33:11;6.50;;;3.53;;
22219;SDS011;11279;48.364;10.904;2023-12-14T05:34:11;5.93;;;3.55;;
22219;SDS011;11279;48.364;10.904;2023-12-14T05:35:12;7.43;;;3.43;;
22219;SDS011;11279;48.364;10.904;2023-12-14T05:36:12;6.60;;;3.90;;
22219;SDS011;11279;48.364;10.904;2023-12-14T05:37:13;8.40;;;4.67;;
22219;SDS011;11279;48.364;10.904;2023-12-14T05:38:13;6.30;;;4.03;;
22219;SDS011;11279;48.364;10.904;2023-12-14T05:39:14;6.17;;;3.47;;
22219;SDS011;11279;48.364;10.904;2023-12-14T05:40:14;5.20;;;3.60;;
22219;SDS011;11279;48.364;10.904;2023-12-14T05:41:15;5.23;;;3.37;;
22219;SDS011;11279;48.364;10.904;2023-12-14T05:42:16;5.90;;;4.03;;
22219;SDS011;11279;48.364;10.904;2023-12-14T05:43:17;5.68;;;3.70;;
22219;SDS011;11279;48.364;10.904;2023-12-14T05:44:18;6.97;;;3.97;;
22219;SDS011;11279;48.364;10.904;2023-12-14T05:45:18;8.53;;;4.07;;
22219;SDS011;11279;48.364;10.904;2023-12-14T05:46:22;8.80;;;4.33;;
22219;SDS011;11279;48.364;10.904;2023-12-14T05:47:23;6.57;;;4.15;;
22219;SDS011;11279;48.364;10.904;2023-12-14T05:48:25;7.45;;;4.43;;
22219;SDS011;11279;48.364;10.904;2023-12-14T05:49:27;6.80;;;3.58;;
22219;SDS011;11279;48.364;10.904;2023-12-14T05:50:27;6.90;;;3.90;;
22219;SDS011;11279;48.364;10.904;2023-12-14T05:51:30;5.83;;;4.17;;
22219;SDS011;11279;48.364;10.904;2023-12-14T05:52:32;6.38;;;4.00;;
22219;SDS011;11279;48.364;10.904;2023-12-14T05:53:32;7.73;;;3.80;;
22219;SDS011;11279;48.364;10.904;2023-12-14T05:54:37;8.32;;;3.88;;
22219;SDS011;11279;48.364;10.904;2023-12-14T05:55:38;9.10;;;3.95;;
22219;SDS011;11279;48.364;10.904;2023-12-14T05:56:40;7.15;;;4.25;;
22219;SDS011;11279;48.364;10.904;2023-12-14T05:57:41;6.93;;;4.00;;
22219;SDS011;11279;48.364;10.904;2023-12-14T05:58:41;7.80;;;4.33;;
22219;SDS011;11279;48.364;10.904;2023-12-14T05:59:41;8.63;;;4.27;;